sensor_id;sensor_type;location;lat;lon;timestamp;pressure;altitude;pressure_sealevel;temperature;humidity
18988;BME280;5494;51.796;10.952;2023-05-10T00:01:34;98252.81;;;13.30;66.52
18988;BME280;5494;51.796;10.952;2023-05-10T00:04:03;98249.63;;;13.26;66.33
18988;BME280;5494;51.796;10.952;2023-05-10T00:06:32;98245.09;;;13.28;66.15
18988;BME280;5494;51.796;10.952;2023-05-10T00:09:00;98238.00;;;13.30;66.24
18988;BME280;5494;51.796;10.952;2023-05-10T00:11:28;98238.38;;;13.37;65.21
18988;BME280;5494;51.796;10.952;2023-05-10T00:13:56;98236.94;;;13.33;65.52
18988;BME280;5494;51.796;10.952;2023-05-10T00:16:24;98236.31;;;13.29;65.75
18988;BME280;5494;51.796;10.952;2023-05-10T00:18:52;98228.66;;;13.39;64.94
18988;BME280;5494;51.796;10.952;2023-05-10T00:21:20;98232.56;;;13.33;65.74
18988;BME280;5494;51.796;10.952;2023-05-10T00:23:49;98228.38;;;13.31;65.64
18988;BME280;5494;51.796;10.952;2023-05-10T00:26:17;98233.41;;;13.34;65.73
18988;BME280;5494;51.796;10.952;2023-05-10T00:28:50;98231.47;;;13.36;65.70
18988;BME280;5494;51.796;10.952;2023-05-10T00:31:19;98221.19;;;13.34;66.00
18988;BME280;5494;51.796;10.952;2023-05-10T00:33:47;98225.09;;;13.40;64.73
18988;BME280;5494;51.796;10.952;2023-05-10T00:36:15;98221.69;;;13.51;63.91
18988;BME280;5494;51.796;10.952;2023-05-10T00:38:43;98229.50;;;13.51;64.74
18988;BME280;5494;51.796;10.952;2023-05-10T00:41:12;98222.41;;;13.53;64.37
18988;BME280;5494;51.796;10.952;2023-05-10T00:43:40;98216.19;;;13.43;64.16
18988;BME280;5494;51.796;10.952;2023-05-10T00:46:09;98214.28;;;13.33;65.39
18988;BME280;5494;51.796;10.952;2023-05-10T00:48:37;98213.09;;;13.37;64.80
18988;BME280;5494;51.796;10.952;2023-05-10T00:51:05;98216.72;;;13.48;64.24
18988;BME280;5494;51.796;10.952;2023-05-10T00:53:34;98202.44;;;13.40;64.08
18988;BME280;5494;51.796;10.952;2023-05-10T00:56:03;98211.13;;;13.52;64.68
18988;BME280;5494;51.796;10.952;2023-05-10T00:58:33;98211.50;;;13.59;63.49
18988;BME280;5494;51.796;10.952;2023-05-10T01:01:01;98200.56;;;13.54;63.87
18988;BME280;5494;51.796;10.952;2023-05-10T01:03:30;98210.91;;;13.55;64.10
18988;BME280;5494;51.796;10.952;2023-05-10T01:05:58;98204.50;;;13.59;63.66
18988;BME280;5494;51.796;10.952;2023-05-10T01:08:27;98209.84;;;13.58;63.64
18988;BME280;5494;51.796;10.952;2023-05-10T01:10:56;98208.63;;;13.51;63.40
18988;BME280;5494;51.796;10.952;2023-05-10T01:13:36;98199.16;;;13.61;62.76
18988;BME280;5494;51.796;10.952;2023-05-10T01:16:06;98209.09;;;13.56;63.29
18988;BME280;5494;51.796;10.952;2023-05-10T01:18:38;98203.56;;;13.60;62.62
18988;BME280;5494;51.796;10.952;2023-05-10T01:21:19;98201.16;;;13.57;62.93
18988;BME280;5494;51.796;10.952;2023-05-10T01:24:31;98201.53;;;13.53;63.47
18988;BME280;5494;51.796;10.952;2023-05-10T01:27:27;98208.53;;;13.52;63.04
18988;BME280;5494;51.796;10.952;2023-05-10T01:33:19;98202.06;;;13.34;64.54
18988;BME280;5494;51.796;10.952;2023-05-10T01:35:56;98202.06;;;13.34;63.88
18988;BME280;5494;51.796;10.952;2023-05-10T01:38:38;98196.97;;;13.32;64.56
18988;BME280;5494;51.796;10.952;2023-05-10T01:41:17;98193.41;;;13.33;64.81
18988;BME280;5494;51.796;10.952;2023-05-10T01:43:57;98196.50;;;13.38;64.36
18988;BME280;5494;51.796;10.952;2023-05-10T01:46:36;98184.63;;;13.34;63.98
18988;BME280;5494;51.796;10.952;2023-05-10T01:49:11;98178.53;;;13.23;65.35
18988;BME280;5494;51.796;10.952;2023-05-10T01:51:47;98189.84;;;13.34;64.67
18988;BME280;5494;51.796;10.952;2023-05-10T01:54:21;98179.16;;;13.37;63.96
18988;BME280;5494;51.796;10.952;2023-05-10T01:56:57;98178.19;;;13.27;64.50
18988;BME280;5494;51.796;10.952;2023-05-10T01:59:34;98175.34;;;13.30;64.10
18988;BME280;5494;51.796;10.952;2023-05-10T02:02:06;98177.97;;;13.41;63.28
18988;BME280;5494;51.796;10.952;2023-05-10T02:04:40;98178.69;;;13.32;64.54
18988;BME280;5494;51.796;10.952;2023-05-10T02:07:10;98185.31;;;13.36;64.06
18988;BME280;5494;51.796;10.952;2023-05-10T02:09:43;98181.19;;;13.34;64.13
18988;BME280;5494;51.796;10.952;2023-05-10T02:12:15;98179.28;;;13.36;63.57
18988;BME280;5494;51.796;10.952;2023-05-10T02:14:45;98185.78;;;13.30;64.12
18988;BME280;5494;51.796;10.952;2023-05-10T02:17:16;98178.78;;;13.31;64.32
18988;BME280;5494;51.796;10.952;2023-05-10T02:19:47;98186.78;;;13.40;63.71
18988;BME280;5494;51.796;10.952;2023-05-10T02:22:17;98184.28;;;13.39;63.87
18988;BME280;5494;51.796;10.952;2023-05-10T02:24:48;98181.03;;;13.35;64.06
18988;BME280;5494;51.796;10.952;2023-05-10T02:27:19;98186.53;;;13.44;63.75
18988;BME280;5494;51.796;10.952;2023-05-10T02:29:49;98189.72;;;13.36;64.08
18988;BME280;5494;51.796;10.952;2023-05-10T02:32:18;98181.09;;;13.47;63.08
18988;BME280;5494;51.796;10.952;2023-05-10T02:34:48;98186.44;;;13.45;63.07
18988;BME280;5494;51.796;10.952;2023-05-10T02:37:19;98186.72;;;13.29;64.50
18988;BME280;5494;51.796;10.952;2023-05-10T02:39:50;98180.81;;;13.27;64.67
18988;BME280;5494;51.796;10.952;2023-05-10T02:42:23;98191.53;;;13.47;63.78
18988;BME280;5494;51.796;10.952;2023-05-10T02:45:01;98191.28;;;13.50;63.52
18988;BME280;5494;51.796;10.952;2023-05-10T02:47:29;98187.16;;;13.47;63.39
18988;BME280;5494;51.796;10.952;2023-05-10T02:49:59;98187.25;;;13.46;63.99
18988;BME280;5494;51.796;10.952;2023-05-10T02:52:37;98189.50;;;13.39;64.58
18988;BME280;5494;51.796;10.952;2023-05-10T02:55:11;98187.16;;;13.47;64.32
18988;BME280;5494;51.796;10.952;2023-05-10T02:57:46;98185.38;;;13.48;64.42
18988;BME280;5494;51.796;10.952;2023-05-10T03:00:16;98183.91;;;13.44;64.73
18988;BME280;5494;51.796;10.952;2023-05-10T03:02:45;98192.69;;;13.43;64.68
18988;BME280;5494;51.796;10.952;2023-05-10T03:05:14;98185.91;;;13.29;65.49
18988;BME280;5494;51.796;10.952;2023-05-10T03:07:42;98188.13;;;13.22;66.58
18988;BME280;5494;51.796;10.952;2023-05-10T03:10:11;98192.97;;;13.16;66.61
18988;BME280;5494;51.796;10.952;2023-05-10T03:12:59;98193.50;;;13.08;67.47
18988;BME280;5494;51.796;10.952;2023-05-10T03:15:39;98191.59;;;12.99;67.70
18988;BME280;5494;51.796;10.952;2023-05-10T03:18:15;98189.16;;;12.85;69.78
18988;BME280;5494;51.796;10.952;2023-05-10T03:20:49;98190.56;;;12.89;70.23
18988;BME280;5494;51.796;10.952;2023-05-10T03:23:26;98189.09;;;12.97;69.41
18988;BME280;5494;51.796;10.952;2023-05-10T03:25:55;98184.13;;;13.06;68.95
18988;BME280;5494;51.796;10.952;2023-05-10T03:28:26;98181.06;;;13.12;69.22
18988;BME280;5494;51.796;10.952;2023-05-10T03:30:56;98179.97;;;13.27;68.06
18988;BME280;5494;51.796;10.952;2023-05-10T03:33:24;98183.34;;;13.51;66.87
18988;BME280;5494;51.796;10.952;2023-05-10T03:35:54;98177.56;;;13.59;66.08
18988;BME280;5494;51.796;10.952;2023-05-10T03:38:22;98180.38;;;13.56;66.54
18988;BME280;5494;51.796;10.952;2023-05-10T03:40:50;98181.56;;;13.63;67.85
18988;BME280;5494;51.796;10.952;2023-05-10T03:43:17;98177.69;;;13.91;65.07
18988;BME280;5494;51.796;10.952;2023-05-10T03:45:46;98179.00;;;14.07;64.54
18988;BME280;5494;51.796;10.952;2023-05-10T03:48:14;98181.75;;;14.06;64.20
18988;BME280;5494;51.796;10.952;2023-05-10T03:50:42;98182.81;;;14.14;63.22
18988;BME280;5494;51.796;10.952;2023-05-10T03:53:11;98183.41;;;14.29;62.47
18988;BME280;5494;51.796;10.952;2023-05-10T03:55:40;98186.38;;;14.36;62.03
18988;BME280;5494;51.796;10.952;2023-05-10T03:58:11;98183.75;;;14.47;61.78
18988;BME280;5494;51.796;10.952;2023-05-10T04:00:39;98176.50;;;14.50;61.34
18988;BME280;5494;51.796;10.952;2023-05-10T04:03:11;98177.56;;;14.48;61.38
18988;BME280;5494;51.796;10.952;2023-05-10T04:05:39;98176.34;;;14.63;60.73
18988;BME280;5494;51.796;10.952;2023-05-10T04:08:07;98174.56;;;14.64;60.67
18988;BME280;5494;51.796;10.952;2023-05-10T04:10:37;98172.91;;;14.63;60.87
18988;BME280;5494;51.796;10.952;2023-05-10T04:13:05;98170.75;;;14.68;60.23
18988;BME280;5494;51.796;10.952;2023-05-10T04:15:33;98169.31;;;14.75;59.78
18988;BME280;5494;51.796;10.952;2023-05-10T04:18:02;98166.34;;;14.68;60.25
18988;BME280;5494;51.796;10.952;2023-05-10T04:20:32;98181.38;;;14.55;60.26
18988;BME280;5494;51.796;10.952;2023-05-10T04:23:00;98175.41;;;14.53;60.86
18988;BME280;5494;51.796;10.952;2023-05-10T04:25:28;98185.78;;;14.43;60.83
18988;BME280;5494;51.796;10.952;2023-05-10T04:27:58;98180.69;;;14.42;60.81
18988;BME280;5494;51.796;10.952;2023-05-10T04:30:26;98179.84;;;14.41;64.06
18988;BME280;5494;51.796;10.952;2023-05-10T04:32:55;98184.69;;;14.35;62.80
18988;BME280;5494;51.796;10.952;2023-05-10T04:35:26;98174.84;;;14.38;61.50
18988;BME280;5494;51.796;10.952;2023-05-10T04:37:54;98183.97;;;14.33;62.04
18988;BME280;5494;51.796;10.952;2023-05-10T04:40:22;98178.41;;;14.26;62.41
18988;BME280;5494;51.796;10.952;2023-05-10T04:42:50;98178.91;;;14.31;62.82
18988;BME280;5494;51.796;10.952;2023-05-10T04:45:20;98176.72;;;14.25;63.44
18988;BME280;5494;51.796;10.952;2023-05-10T04:47:48;98171.88;;;14.20;63.54
18988;BME280;5494;51.796;10.952;2023-05-10T04:50:17;98176.50;;;14.28;63.90
18988;BME280;5494;51.796;10.952;2023-05-10T04:52:45;98182.94;;;14.24;64.03
18988;BME280;5494;51.796;10.952;2023-05-10T04:55:13;98178.75;;;14.33;63.78
18988;BME280;5494;51.796;10.952;2023-05-10T04:57:41;98187.56;;;14.43;63.10
18988;BME280;5494;51.796;10.952;2023-05-10T05:00:10;98195.31;;;14.44;63.12
18988;BME280;5494;51.796;10.952;2023-05-10T05:02:42;98196.72;;;14.37;63.58
18988;BME280;5494;51.796;10.952;2023-05-10T05:05:12;98192.09;;;14.52;62.66
18988;BME280;5494;51.796;10.952;2023-05-10T05:07:40;98196.38;;;14.42;63.05
18988;BME280;5494;51.796;10.952;2023-05-10T05:10:08;98193.16;;;14.49;62.93
18988;BME280;5494;51.796;10.952;2023-05-10T05:12:36;98181.97;;;14.47;63.95
18988;BME280;5494;51.796;10.952;2023-05-10T05:15:06;98183.53;;;14.50;63.12
18988;BME280;5494;51.796;10.952;2023-05-10T05:17:36;98178.59;;;14.68;62.69
18988;BME280;5494;51.796;10.952;2023-05-10T05:20:07;98186.09;;;14.72;62.47
18988;BME280;5494;51.796;10.952;2023-05-10T05:22:36;98184.78;;;14.67;63.10
18988;BME280;5494;51.796;10.952;2023-05-10T05:25:06;98198.69;;;14.67;63.18
18988;BME280;5494;51.796;10.952;2023-05-10T05:27:34;98197.03;;;14.66;63.62
18988;BME280;5494;51.796;10.952;2023-05-10T05:30:03;98202.38;;;14.76;63.24
18988;BME280;5494;51.796;10.952;2023-05-10T05:32:31;98197.91;;;14.87;64.70
18988;BME280;5494;51.796;10.952;2023-05-10T05:34:59;98200.53;;;14.98;63.60
18988;BME280;5494;51.796;10.952;2023-05-10T05:37:28;98201.00;;;15.24;61.78
18988;BME280;5494;51.796;10.952;2023-05-10T05:39:56;98201.25;;;15.21;60.79
18988;BME280;5494;51.796;10.952;2023-05-10T05:42:24;98199.47;;;15.43;60.25
18988;BME280;5494;51.796;10.952;2023-05-10T05:44:52;98200.41;;;15.53;60.20
18988;BME280;5494;51.796;10.952;2023-05-10T05:47:20;98197.28;;;15.80;59.55
18988;BME280;5494;51.796;10.952;2023-05-10T05:49:48;98204.25;;;15.90;59.34
18988;BME280;5494;51.796;10.952;2023-05-10T05:52:17;98195.22;;;16.13;58.81
18988;BME280;5494;51.796;10.952;2023-05-10T05:54:46;98195.69;;;16.28;57.77
18988;BME280;5494;51.796;10.952;2023-05-10T05:57:14;98195.88;;;16.36;57.22
18988;BME280;5494;51.796;10.952;2023-05-10T05:59:42;98200.28;;;16.36;57.25
18988;BME280;5494;51.796;10.952;2023-05-10T06:02:11;98210.72;;;16.26;56.95
18988;BME280;5494;51.796;10.952;2023-05-10T06:04:39;98213.09;;;16.29;58.57
18988;BME280;5494;51.796;10.952;2023-05-10T06:07:10;98212.31;;;16.08;59.51
18988;BME280;5494;51.796;10.952;2023-05-10T06:09:38;98213.53;;;16.34;58.39
18988;BME280;5494;51.796;10.952;2023-05-10T06:12:07;98218.81;;;16.44;57.22
18988;BME280;5494;51.796;10.952;2023-05-10T06:14:35;98211.38;;;16.49;57.91
18988;BME280;5494;51.796;10.952;2023-05-10T06:17:03;98211.56;;;16.27;58.63
18988;BME280;5494;51.796;10.952;2023-05-10T06:19:32;98216.38;;;16.22;60.03
18988;BME280;5494;51.796;10.952;2023-05-10T06:22:00;98219.22;;;16.09;61.16
18988;BME280;5494;51.796;10.952;2023-05-10T06:24:28;98221.09;;;15.97;61.47
18988;BME280;5494;51.796;10.952;2023-05-10T06:26:56;98216.56;;;15.79;62.79
18988;BME280;5494;51.796;10.952;2023-05-10T06:29:28;98220.16;;;15.77;63.95
18988;BME280;5494;51.796;10.952;2023-05-10T06:31:56;98224.44;;;15.58;65.47
18988;BME280;5494;51.796;10.952;2023-05-10T06:34:24;98227.88;;;15.58;66.88
18988;BME280;5494;51.796;10.952;2023-05-10T06:36:53;98225.66;;;15.54;67.36
18988;BME280;5494;51.796;10.952;2023-05-10T06:39:21;98234.84;;;15.48;67.46
18988;BME280;5494;51.796;10.952;2023-05-10T06:41:49;98235.06;;;15.45;69.18
18988;BME280;5494;51.796;10.952;2023-05-10T06:44:18;98240.31;;;15.45;70.73
18988;BME280;5494;51.796;10.952;2023-05-10T06:46:47;98240.75;;;15.50;71.20
18988;BME280;5494;51.796;10.952;2023-05-10T06:49:17;98247.59;;;15.42;73.78
18988;BME280;5494;51.796;10.952;2023-05-10T06:51:45;98246.16;;;15.49;73.56
18988;BME280;5494;51.796;10.952;2023-05-10T06:54:13;98242.91;;;15.56;75.06
18988;BME280;5494;51.796;10.952;2023-05-10T06:56:41;98239.72;;;15.73;71.53
18988;BME280;5494;51.796;10.952;2023-05-10T06:59:09;98240.53;;;15.95;71.55
18988;BME280;5494;51.796;10.952;2023-05-10T07:01:37;98239.84;;;15.93;71.98
18988;BME280;5494;51.796;10.952;2023-05-10T07:04:07;98242.34;;;15.94;72.80
18988;BME280;5494;51.796;10.952;2023-05-10T07:06:35;98245.50;;;15.98;74.55
18988;BME280;5494;51.796;10.952;2023-05-10T07:09:03;98244.56;;;15.99;75.34
18988;BME280;5494;51.796;10.952;2023-05-10T07:11:31;98252.28;;;16.00;76.15
18988;BME280;5494;51.796;10.952;2023-05-10T07:13:59;98257.78;;;15.97;77.50
18988;BME280;5494;51.796;10.952;2023-05-10T07:16:27;98256.59;;;15.81;78.73
18988;BME280;5494;51.796;10.952;2023-05-10T07:18:55;98275.56;;;15.73;79.52
18988;BME280;5494;51.796;10.952;2023-05-10T07:21:25;98282.66;;;15.61;82.43
18988;BME280;5494;51.796;10.952;2023-05-10T07:23:55;98280.06;;;15.61;84.64
18988;BME280;5494;51.796;10.952;2023-05-10T07:26:23;98278.31;;;15.71;84.17
18988;BME280;5494;51.796;10.952;2023-05-10T07:28:51;98283.03;;;15.77;80.48
18988;BME280;5494;51.796;10.952;2023-05-10T07:31:19;98285.13;;;15.63;81.87
18988;BME280;5494;51.796;10.952;2023-05-10T07:33:48;98289.56;;;15.51;81.47
18988;BME280;5494;51.796;10.952;2023-05-10T07:36:16;98286.25;;;15.60;81.83
18988;BME280;5494;51.796;10.952;2023-05-10T07:38:45;98268.84;;;15.59;83.01
18988;BME280;5494;51.796;10.952;2023-05-10T07:41:13;98280.28;;;15.58;82.85
18988;BME280;5494;51.796;10.952;2023-05-10T07:43:41;98274.34;;;15.56;85.01
18988;BME280;5494;51.796;10.952;2023-05-10T07:46:09;98271.97;;;15.42;87.40
18988;BME280;5494;51.796;10.952;2023-05-10T07:48:37;98267.56;;;15.54;88.34
18988;BME280;5494;51.796;10.952;2023-05-10T07:51:05;98270.38;;;15.30;90.69
18988;BME280;5494;51.796;10.952;2023-05-10T07:53:36;98275.09;;;15.36;93.96
18988;BME280;5494;51.796;10.952;2023-05-10T07:58:59;98279.56;;;15.24;97.09
18988;BME280;5494;51.796;10.952;2023-05-10T08:01:31;98286.63;;;15.13;98.25
18988;BME280;5494;51.796;10.952;2023-05-10T08:04:00;98290.09;;;15.02;99.21
18988;BME280;5494;51.796;10.952;2023-05-10T08:06:28;98295.25;;;14.92;100.00
18988;BME280;5494;51.796;10.952;2023-05-10T08:08:57;98304.88;;;14.70;100.00
18988;BME280;5494;51.796;10.952;2023-05-10T08:11:25;98306.66;;;14.80;100.00
18988;BME280;5494;51.796;10.952;2023-05-10T08:13:54;98312.59;;;14.93;100.00
18988;BME280;5494;51.796;10.952;2023-05-10T08:16:24;98316.97;;;15.04;100.00
18988;BME280;5494;51.796;10.952;2023-05-10T08:18:52;98319.22;;;15.09;100.00
18988;BME280;5494;51.796;10.952;2023-05-10T08:21:22;98321.50;;;15.02;100.00
18988;BME280;5494;51.796;10.952;2023-05-10T08:23:50;98323.50;;;15.10;100.00
18988;BME280;5494;51.796;10.952;2023-05-10T08:26:18;98325.28;;;15.20;100.00
18988;BME280;5494;51.796;10.952;2023-05-10T08:28:47;98324.81;;;15.58;100.00
18988;BME280;5494;51.796;10.952;2023-05-10T08:31:15;98331.22;;;15.65;100.00
18988;BME280;5494;51.796;10.952;2023-05-10T08:33:45;98339.34;;;15.51;100.00
18988;BME280;5494;51.796;10.952;2023-05-10T08:36:13;98341.97;;;15.51;100.00
18988;BME280;5494;51.796;10.952;2023-05-10T08:38:46;98346.75;;;15.57;100.00
18988;BME280;5494;51.796;10.952;2023-05-10T08:41:17;98344.78;;;15.70;100.00
18988;BME280;5494;51.796;10.952;2023-05-10T08:43:46;98352.28;;;15.75;100.00
18988;BME280;5494;51.796;10.952;2023-05-10T08:46:17;98350.94;;;15.81;100.00
18988;BME280;5494;51.796;10.952;2023-05-10T08:48:49;98355.88;;;15.95;100.00
18988;BME280;5494;51.796;10.952;2023-05-10T08:51:22;98356.53;;;16.08;100.00
18988;BME280;5494;51.796;10.952;2023-05-10T08:53:53;98351.47;;;15.95;100.00
18988;BME280;5494;51.796;10.952;2023-05-10T08:56:22;98351.09;;;16.00;100.00
18988;BME280;5494;51.796;10.952;2023-05-10T08:58:51;98359.47;;;16.14;100.00
18988;BME280;5494;51.796;10.952;2023-05-10T09:01:20;98350.84;;;16.24;100.00
18988;BME280;5494;51.796;10.952;2023-05-10T09:03:50;98359.66;;;16.43;100.00
18988;BME280;5494;51.796;10.952;2023-05-10T09:06:19;98357.41;;;16.39;100.00
18988;BME280;5494;51.796;10.952;2023-05-10T09:08:47;98357.59;;;16.68;100.00
18988;BME280;5494;51.796;10.952;2023-05-10T09:11:16;98365.41;;;16.79;100.00
18988;BME280;5494;51.796;10.952;2023-05-10T09:13:46;98367.13;;;16.99;98.58
18988;BME280;5494;51.796;10.952;2023-05-10T09:16:15;98368.56;;;17.22;97.07
18988;BME280;5494;51.796;10.952;2023-05-10T09:18:49;98369.97;;;17.36;93.27
18988;BME280;5494;51.796;10.952;2023-05-10T09:21:19;98376.09;;;17.46;93.75
18988;BME280;5494;51.796;10.952;2023-05-10T09:23:48;98382.03;;;17.39;92.69
18988;BME280;5494;51.796;10.952;2023-05-10T09:26:17;98382.44;;;17.44;91.08
18988;BME280;5494;51.796;10.952;2023-05-10T09:28:54;98381.06;;;17.40;91.03
18988;BME280;5494;51.796;10.952;2023-05-10T09:31:22;98389.22;;;17.37;92.94
18988;BME280;5494;51.796;10.952;2023-05-10T09:33:53;98391.00;;;17.26;93.21
18988;BME280;5494;51.796;10.952;2023-05-10T09:36:21;98392.13;;;17.33;94.98
18988;BME280;5494;51.796;10.952;2023-05-10T09:38:51;98395.28;;;17.27;94.87
18988;BME280;5494;51.796;10.952;2023-05-10T09:41:21;98402.63;;;17.33;94.82
18988;BME280;5494;51.796;10.952;2023-05-10T09:43:49;98405.56;;;17.50;95.22
18988;BME280;5494;51.796;10.952;2023-05-10T09:46:18;98411.31;;;17.74;92.95
18988;BME280;5494;51.796;10.952;2023-05-10T09:48:48;98411.03;;;17.77;94.75
18988;BME280;5494;51.796;10.952;2023-05-10T09:51:21;98420.06;;;18.03;92.29
18988;BME280;5494;51.796;10.952;2023-05-10T09:54:09;98427.00;;;18.04;90.59
18988;BME280;5494;51.796;10.952;2023-05-10T09:56:38;98431.28;;;18.25;88.39
18988;BME280;5494;51.796;10.952;2023-05-10T09:59:11;98421.28;;;18.19;87.72
18988;BME280;5494;51.796;10.952;2023-05-10T10:01:40;98430.84;;;18.20;86.01
18988;BME280;5494;51.796;10.952;2023-05-10T10:04:09;98432.25;;;18.04;90.24
18988;BME280;5494;51.796;10.952;2023-05-10T10:06:40;98438.72;;;17.81;88.84
18988;BME280;5494;51.796;10.952;2023-05-10T10:09:08;98432.00;;;17.58;91.99
18988;BME280;5494;51.796;10.952;2023-05-10T10:11:38;98441.13;;;17.54;93.40
18988;BME280;5494;51.796;10.952;2023-05-10T10:14:08;98447.56;;;17.30;96.07
18988;BME280;5494;51.796;10.952;2023-05-10T10:16:36;98448.19;;;17.13;96.71
18988;BME280;5494;51.796;10.952;2023-05-10T10:19:18;98447.25;;;17.14;100.00
18988;BME280;5494;51.796;10.952;2023-05-10T10:21:49;98451.50;;;17.15;100.00
18988;BME280;5494;51.796;10.952;2023-05-10T10:24:17;98462.41;;;17.11;100.00
18988;BME280;5494;51.796;10.952;2023-05-10T10:26:47;98455.84;;;16.96;100.00
18988;BME280;5494;51.796;10.952;2023-05-10T10:29:26;98458.63;;;16.94;100.00
18988;BME280;5494;51.796;10.952;2023-05-10T10:32:10;98459.28;;;16.96;100.00
18988;BME280;5494;51.796;10.952;2023-05-10T10:34:40;98466.97;;;16.88;100.00
18988;BME280;5494;51.796;10.952;2023-05-10T10:37:10;98460.22;;;16.85;100.00
18988;BME280;5494;51.796;10.952;2023-05-10T10:39:40;98466.69;;;16.61;100.00
18988;BME280;5494;51.796;10.952;2023-05-10T10:42:09;98469.13;;;16.41;100.00
18988;BME280;5494;51.796;10.952;2023-05-10T10:44:37;98473.28;;;16.23;100.00
18988;BME280;5494;51.796;10.952;2023-05-10T10:47:23;98477.88;;;16.10;100.00
18988;BME280;5494;51.796;10.952;2023-05-10T10:50:04;98471.06;;;16.07;100.00
18988;BME280;5494;51.796;10.952;2023-05-10T10:52:35;98475.25;;;15.99;100.00
18988;BME280;5494;51.796;10.952;2023-05-10T10:55:06;98488.25;;;16.00;100.00
18988;BME280;5494;51.796;10.952;2023-05-10T10:57:45;98487.81;;;15.84;100.00
18988;BME280;5494;51.796;10.952;2023-05-10T11:00:28;98487.59;;;16.19;100.00
18988;BME280;5494;51.796;10.952;2023-05-10T11:02:59;98490.97;;;16.42;100.00
18988;BME280;5494;51.796;10.952;2023-05-10T11:05:41;98487.44;;;16.32;100.00
18988;BME280;5494;51.796;10.952;2023-05-10T11:08:17;98492.59;;;15.79;100.00
18988;BME280;5494;51.796;10.952;2023-05-10T11:11:02;98497.03;;;15.67;100.00
18988;BME280;5494;51.796;10.952;2023-05-10T11:13:33;98500.84;;;15.63;100.00
18988;BME280;5494;51.796;10.952;2023-05-10T11:16:17;98507.50;;;15.34;100.00
18988;BME280;5494;51.796;10.952;2023-05-10T11:18:59;98504.75;;;15.24;100.00
18988;BME280;5494;51.796;10.952;2023-05-10T11:21:30;98509.53;;;15.30;100.00
18988;BME280;5494;51.796;10.952;2023-05-10T11:24:01;98510.34;;;15.42;100.00
18988;BME280;5494;51.796;10.952;2023-05-10T11:26:35;98513.91;;;15.30;100.00
18988;BME280;5494;51.796;10.952;2023-05-10T11:29:03;98511.19;;;15.31;100.00
18988;BME280;5494;51.796;10.952;2023-05-10T11:31:32;98522.03;;;15.38;100.00
18988;BME280;5494;51.796;10.952;2023-05-10T11:34:01;98525.84;;;15.45;100.00
18988;BME280;5494;51.796;10.952;2023-05-10T11:36:33;98524.88;;;15.46;100.00
18988;BME280;5494;51.796;10.952;2023-05-10T11:39:03;98520.63;;;15.56;100.00
18988;BME280;5494;51.796;10.952;2023-05-10T11:41:32;98514.31;;;15.59;100.00
18988;BME280;5494;51.796;10.952;2023-05-10T11:44:02;98521.94;;;15.62;100.00
18988;BME280;5494;51.796;10.952;2023-05-10T11:46:30;98532.53;;;15.60;100.00
18988;BME280;5494;51.796;10.952;2023-05-10T11:49:00;98527.03;;;15.63;100.00
18988;BME280;5494;51.796;10.952;2023-05-10T11:51:34;98516.91;;;15.81;100.00
18988;BME280;5494;51.796;10.952;2023-05-10T11:54:07;98522.59;;;15.86;100.00
18988;BME280;5494;51.796;10.952;2023-05-10T11:56:37;98524.41;;;15.97;100.00
18988;BME280;5494;51.796;10.952;2023-05-10T11:59:05;98531.31;;;15.87;100.00
18988;BME280;5494;51.796;10.952;2023-05-10T12:01:33;98527.44;;;16.13;100.00
18988;BME280;5494;51.796;10.952;2023-05-10T12:04:02;98520.72;;;16.31;100.00
18988;BME280;5494;51.796;10.952;2023-05-10T12:06:32;98525.50;;;16.58;100.00
18988;BME280;5494;51.796;10.952;2023-05-10T12:09:07;98526.28;;;16.90;100.00
18988;BME280;5494;51.796;10.952;2023-05-10T12:11:39;98526.06;;;17.54;100.00
18988;BME280;5494;51.796;10.952;2023-05-10T12:14:10;98524.44;;;18.03;100.00
18988;BME280;5494;51.796;10.952;2023-05-10T12:16:38;98529.22;;;17.79;100.00
18988;BME280;5494;51.796;10.952;2023-05-10T12:19:06;98531.47;;;17.93;100.00
18988;BME280;5494;51.796;10.952;2023-05-10T12:21:34;98532.00;;;18.46;100.00
18988;BME280;5494;51.796;10.952;2023-05-10T12:24:04;98532.63;;;18.09;100.00
18988;BME280;5494;51.796;10.952;2023-05-10T12:26:35;98527.25;;;18.21;100.00
18988;BME280;5494;51.796;10.952;2023-05-10T12:29:14;98539.91;;;18.65;100.00
18988;BME280;5494;51.796;10.952;2023-05-10T12:31:53;98545.97;;;19.04;97.44
18988;BME280;5494;51.796;10.952;2023-05-10T12:34:33;98544.47;;;18.73;95.92
18988;BME280;5494;51.796;10.952;2023-05-10T12:37:02;98540.56;;;18.38;100.00
18988;BME280;5494;51.796;10.952;2023-05-10T12:39:41;98537.38;;;18.44;100.00
18988;BME280;5494;51.796;10.952;2023-05-10T12:42:11;98543.88;;;18.50;100.00
18988;BME280;5494;51.796;10.952;2023-05-10T12:44:40;98553.47;;;18.70;100.00
18988;BME280;5494;51.796;10.952;2023-05-10T12:47:08;98545.00;;;18.38;97.85
18988;BME280;5494;51.796;10.952;2023-05-10T12:49:38;98553.00;;;17.77;100.00
18988;BME280;5494;51.796;10.952;2023-05-10T12:52:06;98548.19;;;17.52;100.00
18988;BME280;5494;51.796;10.952;2023-05-10T12:54:34;98555.28;;;17.30;100.00
18988;BME280;5494;51.796;10.952;2023-05-10T12:57:02;98554.78;;;17.16;100.00
18988;BME280;5494;51.796;10.952;2023-05-10T12:59:32;98566.50;;;17.32;100.00
18988;BME280;5494;51.796;10.952;2023-05-10T13:02:03;98557.72;;;17.22;100.00
18988;BME280;5494;51.796;10.952;2023-05-10T13:04:31;98569.03;;;17.13;100.00
18988;BME280;5494;51.796;10.952;2023-05-10T13:07:02;98565.69;;;17.11;100.00
18988;BME280;5494;51.796;10.952;2023-05-10T13:09:30;98566.50;;;16.70;100.00
18988;BME280;5494;51.796;10.952;2023-05-10T13:12:04;98576.19;;;16.59;100.00
18988;BME280;5494;51.796;10.952;2023-05-10T13:14:37;98573.09;;;16.53;100.00
18988;BME280;5494;51.796;10.952;2023-05-10T13:17:09;98584.34;;;16.44;100.00
18988;BME280;5494;51.796;10.952;2023-05-10T13:19:37;98576.09;;;16.49;100.00
18988;BME280;5494;51.796;10.952;2023-05-10T13:22:05;98576.91;;;16.61;100.00